Time;durP1;ratioP1;P1;durP2;ratioP2;P2;SDS_P1;SDS_P2;PMS_P1;PMS_P2;Temp;Humidity;BMP_temperature;BMP_pressure;BME280_temperature;BME280_humidity;BME280_pressure;Samples;Min_cycle;Max_cycle;Signal;HPM_P1;HPM_P2
2023/05/15 00:00:48;;;;;;;17.20;12.20;;;;;;;12.50;78.85;99771.95;133939;1297;22388;-78
2023/05/15 00:04:12;;;;;;;13.90;12.40;;;;;;;12.46;79.14;99755.26;134225;1298;22901;-79
2023/05/15 00:12:36;;;;;;;;;;;;;;;;;;;;;
2023/05/15 00:16:06;;;;;;;11.80;10.40;;;;;;;12.28;80.30;99715.52;134195;1297;22597;-78
2023/05/15 00:27:40;;;;;;;;;;;;;;;;;;;;;
2023/05/15 00:31:41;;;;;;;;;;;;;;;;;;;;;
2023/05/15 00:36:09;;;;;;;13.40;11.90;;;;;;;12.08;81.38;99695.07;134239;1297;23118;-78
2023/05/15 00:39:20;;;;;;;17.40;12.90;;;;;;;12.07;81.64;99679.66;133961;1297;22361;-78
2023/05/15 00:43:13;;;;;;;14.80;12.50;;;;;;;12.03;81.97;99667.85;133903;1298;22291;-78
2023/05/15 00:47:42;;;;;;;14.70;12.00;;;;;;;12.04;81.99;99666.99;134080;1297;22508;-78
2023/05/15 00:51:01;;;;;;;16.80;12.80;;;;;;;12.03;82.59;99661.47;133969;1298;22362;-77
2023/05/15 00:59:57;;;;;;;16.10;14.00;;;;;;;12.04;82.79;99658.77;133919;1297;22350;-78
2023/05/15 01:04:09;;;;;;;18.30;16.10;;;;;;;12.04;82.65;99653.91;133856;1297;23163;-78
2023/05/15 01:07:08;;;;;;;21.60;17.60;;;;;;;12.06;82.77;99638.83;134097;1297;22474;-78
2023/05/15 01:11:20;;;;;;;;;;;;;;;;;;;;;
2023/05/15 01:16:07;;;;;;;17.90;15.70;;;;;;;12.08;82.90;99634.11;133923;1297;22443;-78
2023/05/15 01:20:07;;;;;;;;;;;;;;;;;;;;;
2023/05/15 01:24:01;;;;;;;18.50;12.80;;;;;;;12.04;83.13;99634.47;134234;1298;22406;-78
2023/05/15 01:31:58;;;;;;;16.70;12.50;;;;;;;11.91;83.55;99621.12;133827;1297;22437;-78
2023/05/15 01:36:54;;;;;;;15.40;12.20;;;;;;;11.91;83.88;99613.71;134100;1297;22371;-78
2023/05/15 01:40:44;;;;;;;12.20;9.80;;;;;;;11.89;83.93;99606.00;134018;1297;22394;-78
2023/05/15 01:43:50;;;;;;;12.90;9.70;;;;;;;11.83;83.85;99603.50;134035;1297;22901;-78
2023/05/15 01:47:45;;;;;;;12.20;8.60;;;;;;;11.82;84.18;99599.55;134205;1297;22324;-78
2023/05/15 01:52:12;;;;;;;9.20;8.30;;;;;;;11.78;84.35;99589.27;134244;1297;22369;-78
2023/05/15 01:55:22;;;;;;;8.60;7.20;;;;;;;11.73;84.37;99581.65;133984;1298;22364;-78
2023/05/15 02:12:13;;;;;;;11.70;8.50;;;;;;;11.72;85.20;99550.86;133945;1298;22428;-78
2023/05/15 02:15:52;;;;;;;10.80;9.20;;;;;;;11.73;85.51;99540.08;134027;1305;22482;-77
2023/05/15 02:19:28;;;;;;;10.50;9.20;;;;;;;11.72;85.78;99540.52;133985;1298;24207;-78
2023/05/15 02:24:14;;;;;;;10.70;8.10;;;;;;;11.69;85.99;99534.88;134221;1297;22398;-78
2023/05/15 02:46:17;;;;;;;10.40;8.60;;;;;;;11.61;86.49;99515.95;133938;1297;22391;-78
2023/05/15 02:49:58;;;;;;;12.80;8.60;;;;;;;11.58;86.56;99503.24;133906;1297;22293;-78
2023/05/15 02:54:29;;;;;;;10.00;8.00;;;;;;;11.58;86.74;99495.77;134184;1298;22454;-78
2023/05/15 02:57:49;;;;;;;8.30;7.20;;;;;;;11.55;86.82;99487.81;133566;1297;23059;-78
2023/05/15 03:00:58;;;;;;;7.40;6.60;;;;;;;11.57;86.91;99479.16;134165;1305;22377;-78
2023/05/15 03:12:58;;;;;;;7.30;6.50;;;;;;;11.53;87.30;99451.29;133961;1298;22497;-78
2023/05/15 03:17:04;;;;;;;;;;;;;;;;;;;;;
2023/05/15 03:21:21;;;;;;;;;;;;;;;;;;;;;
2023/05/15 03:25:30;;;;;;;;;;;;;;;;;;;;;
2023/05/15 03:29:56;;;;;;;;;;;;;;;;;;;;;
2023/05/15 03:38:23;;;;;;;11.10;10.00;;;;;;;11.44;88.01;99420.59;133960;1301;22227;-77
2023/05/15 03:45:58;;;;;;;;;;;;;;;;;;;;;
2023/05/15 03:49:22;;;;;;;;;;;;;;;;;;;;;
2023/05/15 03:53:08;;;;;;;;;;;;;;;11.47;88.32;99402.46;134165;1297;23216;-77
2023/05/15 03:57:13;;;;;;;11.00;9.90;;;;;;;11.47;88.23;99399.27;134133;1297;23126;-77
2023/05/15 04:01:21;;;;;;;;;;;;;;;;;;;;;
2023/05/15 04:04:32;;;;;;;10.30;8.80;;;;;;;11.49;88.86;99389.55;133880;1298;22192;-77
2023/05/15 04:08:15;;;;;;;11.40;10.20;;;;;;;11.47;88.75;99390.20;134220;1297;22233;-77
2023/05/15 04:16:18;;;;;;;11.30;10.20;;;;;;;11.43;89.04;99385.30;133964;1297;22329;-77
2023/05/15 04:19:52;;;;;;;;;;;;;;;;;;;;;
2023/05/15 04:23:42;;;;;;;10.10;8.70;;;;;;;11.40;89.31;99382.41;134217;1297;22382;-77
2023/05/15 04:27:02;;;;;;;;;;;;;;;;;;;;;
2023/05/15 04:30:16;;;;;;;7.40;6.60;;;;;;;11.42;89.45;99378.06;134211;1297;22388;-77
2023/05/15 04:34:48;;;;;;;;;;;;;;;;;;;;;
2023/05/15 04:42:57;;;;;;;;;;;;;;;;;;;;;
2023/05/15 04:51:03;;;;;;;;;;;;;;;;;;;;;
2023/05/15 04:54:42;;;;;;;;;;;;;;;;;;;;;
2023/05/15 04:58:46;;;;;;;7.50;6.80;;;;;;;11.38;91.07;99362.61;134258;1297;22420;-78
2023/05/15 05:02:21;;;;;;;9.50;7.10;;;;;;;11.42;91.12;99357.71;134034;1301;22410;-76
2023/05/15 05:05:45;;;;;;;8.10;7.10;;;;;;;11.47;91.09;99348.89;134096;1301;23480;-76
2023/05/15 05:08:55;;;;;;;8.10;7.10;;;;;;;11.55;91.31;99346.91;134119;1297;22158;-76
2023/05/15 05:12:54;;;;;;;;;;;;;;;;;;;;;
2023/05/15 05:16:58;;;;;;;11.00;7.90;;;;;;;11.67;91.22;99348.52;134116;1298;23164;-77
2023/05/15 05:25:35;;;;;;;;;;;;;;;;;;;;;
2023/05/15 05:33:21;;;;;;;;;;;;;;;;;;;;;
2023/05/15 05:37:24;;;;;;;;;;;;;;;;;;;;;
2023/05/15 05:41:22;;;;;;;7.90;7.10;;;;;;;11.82;90.83;99320.58;134040;1301;22397;-77
2023/05/15 05:57:22;;;;;;;;;;;;;;;;;;;;;
2023/05/15 06:01:54;;;;;;;;;;;;;;;;;;;;;
2023/05/15 06:10:43;;;;;;;8.60;7.80;;;;;;;12.22;90.95;99274.08;134012;1298;22379;-76
2023/05/15 06:14:45;;;;;;;;;;;;;;;;;;;;;
2023/05/15 06:18:25;;;;;;;9.40;8.50;;;;;;;12.36;90.86;99269.85;134023;1297;22251;-78
2023/05/15 06:31:34;;;;;;;11.30;9.20;;;;;;;12.45;90.34;99267.35;134117;1298;22478;-76
2023/05/15 06:35:55;;;;;;;;;;;;;;;;;;;;;
2023/05/15 06:39:56;;;;;;;9.70;8.50;;;;;;;12.66;90.38;99260.69;133451;1302;22942;-77
2023/05/15 06:44:20;;;;;;;9.60;8.70;;;;;;;12.74;90.03;99258.63;133641;1306;22253;-77
2023/05/15 06:51:58;;;;;;;;;;;;;;;;;;;;;
2023/05/15 07:00:40;;;;;;;;;;;;;;;;;;;;;
2023/05/15 07:04:08;;;;;;;10.40;9.30;;;;;;;13.13;89.14;99254.61;134028;1297;22387;-76
2023/05/15 07:08:31;;;;;;;;;;;;;;;;;;;;;
2023/05/15 07:12:03;;;;;;;11.00;9.90;;;;;;;13.16;89.16;99240.52;133992;1298;22407;-76
2023/05/15 07:15:29;;;;;;;13.00;10.40;;;;;;;13.21;89.34;99234.86;134233;1298;22411;-77
2023/05/15 07:23:35;;;;;;;12.90;11.00;;;;;;;13.48;88.92;99231.11;133828;1290;23077;-77
2023/05/15 07:28:10;;;;;;;13.90;10.80;;;;;;;13.58;88.56;99231.63;133991;1298;22393;-77
2023/05/15 07:31:49;;;;;;;13.90;11.00;;;;;;;13.54;88.03;99233.72;133961;1298;22156;-77
2023/05/15 07:35:11;;;;;;;;;;;;;;;;;;;;;
2023/05/15 07:38:48;;;;;;;12.50;10.50;;;;;;;13.54;87.74;99228.88;134191;1298;22375;-76
2023/05/15 07:54:45;;;;;;;;;;;;;;;;;;;;;
2023/05/15 07:58:24;;;;;;;;;;;;;;;;;;;;;
2023/05/15 08:02:04;;;;;;;;;;;;;;;;;;;;;
2023/05/15 08:11:11;;;;;;;14.60;11.40;;;;;;;13.81;86.46;99224.19;133943;1298;22381;-80
2023/05/15 08:14:32;;;;;;;45.50;14.50;;;;;;;13.81;86.68;99212.29;134039;1305;23149;-76
2023/05/15 08:19:05;;;;;;;20.70;12.90;;;;;;;13.93;86.95;99204.23;134186;1294;22399;-76
2023/05/15 08:47:54;;;;;;;9.20;8.30;;;;;;;14.68;85.68;99201.16;133973;1298;22360;-76
2023/05/15 08:51:38;;;;;;;10.30;8.40;;;;;;;14.85;85.64;99205.31;134138;1298;22190;-76
2023/05/15 08:55:30;;;;;;;;;;;;;;;;;;;;;
2023/05/15 09:16:23;;;;;;;;;;;;;;;;;;;;;
2023/05/15 09:34:13;;;;;;;9.00;7.50;;;;;;;15.32;82.95;99186.84;133914;1305;23117;-77
2023/05/15 09:38:02;;;;;;;;;;;;;;;;;;;;;
2023/05/15 09:42:40;;;;;;;6.60;6.00;;;;;;;15.29;83.21;99192.75;134014;1298;22481;-75
2023/05/15 09:46:14;;;;;;;;;;;;;;;;;;;;;
2023/05/15 09:54:50;;;;;;;;;;;;;;;;;;;;;
2023/05/15 10:12:10;;;;;;;;;;;;;;;;;;;;;
2023/05/15 10:16:28;;;;;;;7.30;6.70;;;;;;;16.36;80.80;99193.46;134001;1299;22372;-83
2023/05/15 10:24:36;;;;;;;;;;;;;;;;;;;;;
2023/05/15 10:28:58;;;;;;;7.70;7.00;;;;;;;16.22;79.94;99191.21;134168;1298;23103;-82
2023/05/15 10:32:43;;;;;;;6.90;6.30;;;;;;;16.45;79.81;99198.52;134200;1301;22458;-82
2023/05/15 10:36:15;;;;;;;11.80;7.30;;;;;;;16.72;79.30;99189.28;134084;1298;23251;-82
2023/05/15 10:40:07;;;;;;;;;;;;;;;;;;;;;
2023/05/15 10:48:24;;;;;;;7.90;6.30;;;;;;;17.02;77.48;99192.27;133925;1298;22513;-82
2023/05/15 10:57:05;;;;;;;;;;;;;;;;;;;;;
2023/05/15 11:01:49;;;;;;;7.80;6.60;;;;;;;17.28;76.78;99187.73;134089;1298;22446;-82
2023/05/15 11:05:06;;;;;;;6.00;5.40;;;;;;;17.44;75.88;99185.75;134058;1298;22429;-83
2023/05/15 11:09:00;;;;;;;5.20;4.70;;;;;;;17.42;74.78;99175.92;133953;1301;22313;-82
2023/05/15 11:13:08;;;;;;;5.40;4.90;;;;;;;17.42;74.78;99176.41;134065;1298;23250;-82
2023/05/15 11:16:20;;;;;;;6.00;5.20;;;;;;;17.54;74.46;99170.84;134117;1298;22426;-81
2023/05/15 11:20:55;;;;;;;6.00;4.90;;;;;;;17.67;74.30;99164.73;134226;1291;22440;-83
2023/05/15 11:24:37;;;;;;;;;;;;;;;;;;;;;
2023/05/15 11:32:51;;;;;;;6.50;5.80;;;;;;;18.18;74.01;99145.20;134145;1298;22893;-82
2023/05/15 11:36:00;;;;;;;5.80;5.20;;;;;;;18.58;73.12;99142.16;133323;1303;22500;-82
2023/05/15 11:39:29;;;;;;;5.90;5.40;;;;;;;18.49;71.76;99141.90;134216;1297;23121;-82
2023/05/15 11:52:16;;;;;;;;;;;;;;;;;;;;;
2023/05/15 12:13:38;;;;;;;4.00;3.60;;;;;;;17.89;69.33;99123.20;133843;1297;22449;-83
2023/05/15 12:18:00;;;;;;;5.10;4.40;;;;;;;18.02;69.11;99122.36;133978;1298;23530;-82
2023/05/15 12:25:57;;;;;;;;;;;;;;;;;;;;;
2023/05/15 12:30:31;;;;;;;4.50;4.00;;;;;;;18.58;67.43;99112.95;134036;1298;23147;-82
2023/05/15 12:34:10;;;;;;;4.40;4.00;;;;;;;18.48;67.25;99113.09;133903;1298;23256;-83
2023/05/15 12:37:53;;;;;;;5.70;4.80;;;;;;;18.36;66.67;99112.08;134105;1303;22380;-83
2023/05/15 12:41:59;;;;;;;4.10;3.80;;;;;;;17.98;66.31;99118.86;134144;1298;22366;-83
2023/05/15 12:45:46;;;;;;;;;;;;;;;;;;;;;
2023/05/15 12:49:20;;;;;;;6.80;4.20;;;;;;;17.00;66.37;99133.58;134152;1297;22222;-83
2023/05/15 12:56:43;;;;;;;;;;;;;;;;;;;;;
2023/05/15 13:00:27;;;;;;;5.10;4.00;;;;;;;17.09;67.95;99129.30;134181;1297;22458;-83
2023/05/15 13:05:04;;;;;;;3.30;3.10;;;;;;;17.06;67.40;99136.94;134203;1298;22404;-82
2023/05/15 13:08:55;;;;;;;4.60;3.30;;;;;;;16.98;67.34;99133.66;134120;1297;22402;-83
2023/05/15 13:13:09;;;;;;;4.10;3.70;;;;;;;17.01;67.86;99126.61;134021;1297;22302;-82
2023/05/15 13:16:58;;;;;;;;;;;;;;;;;;;;;
2023/05/15 13:25:29;;;;;;;3.70;3.40;;;;;;;17.41;67.30;99115.11;133998;1297;22436;-81
2023/05/15 13:28:54;;;;;;;2.70;2.40;;;;;;;17.46;66.86;99114.51;134188;1297;22143;-83
2023/05/15 13:33:05;;;;;;;3.30;2.80;;;;;;;17.40;66.37;99112.98;134080;1298;22157;-82
2023/05/15 13:37:20;;;;;;;5.00;3.10;;;;;;;17.27;66.45;99120.98;134121;1297;22193;-83
2023/05/15 13:40:36;;;;;;;;;;;;;;;;;;;;;
2023/05/15 13:43:46;;;;;;;5.60;2.40;;;;;;;17.30;66.34;99130.57;134151;1298;22406;-84
2023/05/15 13:52:37;;;;;;;3.60;2.50;;;;;;;16.67;66.08;99135.34;133921;1297;22373;-82
2023/05/15 14:00:26;;;;;;;;;;;;;;;;;;;;;
2023/05/15 14:04:10;;;;;;;3.60;2.70;;;;;;;16.06;66.80;99151.39;133987;1297;22434;-82
2023/05/15 14:12:54;;;;;;;3.90;3.30;;;;;;;15.88;67.50;99146.59;133924;1297;22320;-81
2023/05/15 14:20:51;;;;;;;4.50;3.50;;;;;;;15.69;67.89;99164.66;134031;1297;22369;-82
2023/05/15 14:24:43;;;;;;;4.10;3.80;;;;;;;15.61;68.42;99163.23;133945;1297;24255;-81
2023/05/15 14:28:23;;;;;;;;;;;;;;;;;;;;;
2023/05/15 14:32:26;;;;;;;7.20;5.40;;;;;;;15.61;69.81;99169.07;133863;1297;22395;-81
2023/05/15 14:36:51;;;;;;;4.60;4.20;;;;;;;15.76;70.36;99165.25;134174;1297;22357;-78
2023/05/15 14:40:29;;;;;;;;;;;;;;;;;;;;;
2023/05/15 14:44:18;;;;;;;;;;;;;;;;;;;;;
2023/05/15 14:48:54;;;;;;;2.80;2.50;;;;;;;16.08;69.47;99154.17;134167;1297;23012;-81
2023/05/15 14:52:50;;;;;;;4.70;3.00;;;;;;;15.98;70.15;99160.73;133864;1298;22372;-82
2023/05/15 14:57:02;;;;;;;3.60;3.30;;;;;;;15.92;70.56;99160.14;133951;1297;23671;-82
2023/05/15 15:00:48;;;;;;;4.30;3.60;;;;;;;16.03;71.19;99153.94;134188;1297;22380;-82
2023/05/15 15:08:55;;;;;;;;;;;;;;;;;;;;;
2023/05/15 15:12:34;;;;;;;3.40;3.10;;;;;;;15.79;70.92;99162.76;134042;1298;22241;-80
2023/05/15 15:20:00;;;;;;;4.50;3.30;;;;;;;15.53;72.43;99161.34;133552;1303;22401;-78
2023/05/15 15:24:46;;;;;;;5.30;2.90;;;;;;;15.54;72.48;99170.05;133558;1302;22379;-79
2023/05/15 15:32:02;;;;;;;2.40;2.20;;;;;;;14.88;73.02;99172.17;133446;1301;22387;-80
2023/05/15 15:36:22;;;;;;;2.80;2.20;;;;;;;14.70;73.65;99176.02;133515;1302;22263;-79
2023/05/15 15:40:10;;;;;;;2.80;2.60;;;;;;;14.54;74.22;99177.95;133477;1303;22250;-79
2023/05/15 15:44:00;;;;;;;3.50;2.80;;;;;;;14.34;74.27;99182.94;133578;1298;22412;-73
2023/05/15 15:47:05;;;;;;;4.40;3.40;;;;;;;14.21;75.17;99190.64;134184;1293;22382;-74
2023/05/15 15:54:38;;;;;;;4.40;3.90;;;;;;;13.82;76.74;99200.89;133998;1298;22376;-74
2023/05/15 15:58:25;;;;;;;3.70;3.40;;;;;;;13.68;77.68;99199.00;134199;1297;22481;-75
2023/05/15 16:02:20;;;;;;;;;;;;;;;;;;;;;
2023/05/15 16:05:54;;;;;;;;;;;;;;;;;;;;;
2023/05/15 16:09:46;;;;;;;;;;;;;;;;;;;;;
2023/05/15 16:13:35;;;;;;;;;;;;;;;;;;;;;
2023/05/15 16:17:38;;;;;;;4.10;3.80;;;;;;;13.73;78.64;99203.78;134068;1297;22557;-73
2023/05/15 16:20:27;;;;;;;6.50;5.20;;;;;;;13.80;79.06;99203.96;134092;1298;22299;-73
2023/05/15 16:23:46;;;;;;;4.40;4.00;;;;;;;13.88;79.07;99209.45;134061;1297;23209;-74
2023/05/15 16:27:30;;;;;;;4.90;4.40;;;;;;;13.93;78.94;99209.84;133979;1298;22380;-74
2023/05/15 16:31:25;;;;;;;5.60;4.10;;;;;;;13.97;78.96;99209.91;134103;1297;22415;-73
2023/05/15 16:35:01;;;;;;;5.90;4.80;;;;;;;13.96;78.77;99215.69;134180;1297;23336;-74
2023/05/15 16:39:11;;;;;;;5.20;4.40;;;;;;;13.93;78.38;99216.02;134181;1297;22445;-73
2023/05/15 16:42:42;;;;;;;5.10;4.60;;;;;;;13.92;78.13;99213.12;134097;1297;22351;-78
2023/05/15 16:46:05;;;;;;;;;;;;;;;;;;;;;
2023/05/15 16:50:02;;;;;;;;;;;;;;;;;;;;;
2023/05/15 16:54:16;;;;;;;5.30;4.80;;;;;;;13.90;77.52;99223.35;134276;1297;23136;-73
2023/05/15 17:06:11;;;;;;;;;;;;;;;;;;;;;
2023/05/15 17:09:39;;;;;;;;;;;;;;;;;;;;;
2023/05/15 17:12:59;;;;;;;;;;;;;;;;;;;;;
2023/05/15 17:16:44;;;;;;;9.10;7.20;;;;;;;13.79;77.76;99247.98;134168;1298;22871;-72
2023/05/15 17:20:24;;;;;;;11.60;8.80;;;;;;;13.76;77.58;99253.20;133950;1297;23115;-74
2023/05/15 17:23:49;;;;;;;;;;;;;;;;;;;;;
2023/05/15 17:27:04;;;;;;;;;;;;;;;13.73;77.71;99261.08;134227;1297;22521;-72
2023/05/15 17:30:14;;;;;;;12.60;9.30;;;;;;;13.73;77.75;99263.54;134230;1297;22452;-73
2023/05/15 17:34:02;;;;;;;;;;;;;;;;;;;;;
2023/05/15 17:37:45;;;;;;;;;;;;;;;;;;;;;
2023/05/15 17:45:48;;;;;;;13.20;10.20;;;;;;;13.61;77.90;99267.42;134025;1297;22524;-74
2023/05/15 17:53:20;;;;;;;;;;;;;;;;;;;;;
2023/05/15 17:57:32;;;;;;;;;;;;;;;;;;;;;
2023/05/15 18:01:28;;;;;;;11.50;10.30;;;;;;;13.51;78.50;99266.20;134218;1297;22365;-69
2023/05/15 18:04:59;;;;;;;;;;;;;;;;;;;;;
2023/05/15 18:08:46;;;;;;;;;;;;;;;;;;;;;
2023/05/15 18:16:11;;;;;;;13.20;11.20;;;;;;;13.29;79.50;99289.89;133953;1297;22355;-73
2023/05/15 18:26:42;;;;;;;14.20;12.20;;;;;;;13.09;80.27;99305.46;134158;1305;23119;-74
2023/05/15 18:30:13;;;;;;;13.40;11.70;;;;;;;13.08;80.56;99311.69;134259;1297;22437;-74
2023/05/15 18:33:41;;;;;;;;;;;;;;;;;;;;;
2023/05/15 18:38:18;;;;;;;17.70;15.90;;;;;;;13.06;81.06;99328.48;134237;1297;22991;-74
2023/05/15 18:42:07;;;;;;;;;;;;;;;;;;;;;
2023/05/15 18:45:37;;;;;;;14.20;12.80;;;;;;;13.01;81.24;99332.09;134020;1301;22134;-74
2023/05/15 18:49:09;;;;;;;;;;;;;;;;;;;;;
2023/05/15 18:52:50;;;;;;;;;;;;;;;;;;;;;
2023/05/15 18:56:51;;;;;;;13.80;12.50;;;;;;;12.83;81.53;99336.45;134137;1298;22441;-74
2023/05/15 19:00:17;;;;;;;16.10;14.40;;;;;;;12.77;81.95;99338.29;133895;1297;24028;-74
2023/05/15 19:08:00;;;;;;;;;;;;;;;;;;;;;
2023/05/15 19:11:34;;;;;;;;;;;;;;;;;;;;;
2023/05/15 19:15:22;;;;;;;;;;;;;;;;;;;;;
2023/05/15 19:19:28;;;;;;;17.80;14.60;;;;;;;12.59;82.52;99372.02;134225;1297;22383;-74
2023/05/15 19:23:12;;;;;;;15.10;13.60;;;;;;;12.48;82.49;99377.46;134009;1298;23599;-74
2023/05/15 19:26:29;;;;;;;18.20;16.00;;;;;;;12.36;82.67;99377.64;134148;1297;22367;-74
2023/05/15 19:30:29;;;;;;;;;;;;;;;;;;;;;
2023/05/15 19:34:16;;;;;;;;;;;;;;;;;;;;;
2023/05/15 19:37:48;;;;;;;23.80;15.60;;;;;;;12.02;83.35;99381.44;133549;1303;22434;-74
2023/05/15 19:41:00;;;;;;;22.50;15.90;;;;;;;11.94;83.42;99382.90;133640;1302;22453;-74
2023/05/15 19:45:13;;;;;;;;;;;;;;;;;;;;;
2023/05/15 19:48:48;;;;;;;;;;;;;;;;;;;;;
2023/05/15 19:52:09;;;;;;;18.30;14.40;;;;;;;11.73;84.19;99388.79;129617;1301;5367894;-74
2023/05/15 19:55:13;;;;;;;18.10;14.90;;;;;;;11.67;84.29;99387.02;133453;1302;22221;-74
2023/05/15 19:58:16;;;;;;;17.10;14.30;;;;;;;11.61;84.50;99383.51;133287;1301;22402;-74
2023/05/15 20:01:17;;;;;;;18.90;15.00;;;;;;;11.56;84.54;99386.02;133645;1297;23024;-74
2023/05/15 20:04:19;;;;;;;22.10;15.90;;;;;;;11.50;84.57;99385.36;133866;1297;23112;-74
2023/05/15 20:07:23;;;;;;;18.70;15.30;;;;;;;11.45;84.81;99384.92;134122;1297;22370;-74
2023/05/15 20:10:27;;;;;;;18.40;14.20;;;;;;;11.41;84.87;99384.89;133965;1297;22524;-74
2023/05/15 20:13:28;;;;;;;17.80;14.30;;;;;;;11.36;84.84;99384.09;133934;1298;22381;-74
2023/05/15 20:17:04;;;;;;;;;;;;;;;;;;;;;
2023/05/15 20:20:22;;;;;;;;;;;;;;;;;;;;;
2023/05/15 20:23:29;;;;;;;21.00;14.20;;;;;;;11.29;85.13;99405.74;134128;1297;22392;-74
2023/05/15 20:26:34;;;;;;;16.80;13.90;;;;;;;11.30;85.06;99409.36;134242;1297;24935;-74
2023/05/15 20:29:50;;;;;;;16.10;14.40;;;;;;;11.30;85.24;99412.48;133903;1297;23141;-74
2023/05/15 20:36:33;;;;;;;20.30;13.70;;;;;;;11.22;84.91;99411.98;134082;1297;22191;-74
2023/05/15 20:40:15;;;;;;;;;;;;;;;;;;;;;
2023/05/15 20:44:06;;;;;;;;;;;;;;;;;;;;;
2023/05/15 20:48:01;;;;;;;;;;;;;;;;;;;;;
2023/05/15 20:51:54;;;;;;;;;;;;;;;;;;;;;
2023/05/15 20:55:29;;;;;;;;;;;;;;;;;;;;;
2023/05/15 20:58:41;;;;;;;16.70;13.30;;;;;;;10.95;84.75;99424.94;134295;1305;22406;-74
2023/05/15 21:02:33;;;;;;;17.10;13.30;;;;;;;10.92;84.71;99430.01;134201;1298;22303;-74
2023/05/15 21:06:02;;;;;;;18.90;13.60;;;;;;;10.88;84.86;99424.66;134313;1298;22417;-74
2023/05/15 21:09:54;;;;;;;;;;;;;;;;;;;;;
2023/05/15 21:13:03;;;;;;;19.20;14.90;;;;;;;10.86;85.38;99425.52;134186;1297;22425;-73
2023/05/15 21:16:53;;;;;;;;;;;;;;;;;;;;;
2023/05/15 21:20:02;;;;;;;17.00;15.00;;;;;;;10.78;85.15;99417.59;134234;1297;22449;-73
2023/05/15 21:23:51;;;;;;;;;;;;;;;;;;;;;
2023/05/15 21:28:20;;;;;;;27.30;15.60;;;;;;;10.64;84.99;99418.15;134094;1302;22446;-73
2023/05/15 21:35:29;;;;;;;;;;;;;;;;;;;;;
2023/05/15 21:39:05;;;;;;;23.00;16.70;;;;;;;10.42;84.90;99429.52;134264;1297;22413;-73
2023/05/15 21:42:39;;;;;;;20.10;15.60;;;;;;;10.39;85.39;99426.33;134244;1297;22478;-74
2023/05/15 21:50:07;;;;;;;;;;;;;;;;;;;;;
2023/05/15 21:53:19;;;;;;;24.10;17.00;;;;;;;10.26;85.50;99435.89;134231;1297;22387;-73
2023/05/15 21:57:02;;;;;;;24.80;16.20;;;;;;;10.23;85.40;99439.33;134247;1297;22329;-73
2023/05/15 22:00:11;;;;;;;25.90;17.30;;;;;;;10.17;85.15;99439.81;134250;1297;22453;-73
2023/05/15 22:43:22;;;;;;;;;;;;;;;;;;;;;
2023/05/15 22:46:38;;;;;;;;;;;;;;;;;;;;;
2023/05/15 22:50:05;;;;;;;20.10;15.10;;;;;;;9.60;85.53;99472.63;134234;1298;22992;-72
2023/05/15 22:53:12;;;;;;;19.30;15.10;;;;;;;9.56;85.68;99470.29;134274;1298;22357;-72
2023/05/15 22:56:13;;;;;;;16.40;13.40;;;;;;;9.54;85.56;99474.25;134099;1298;22898;-72
2023/05/15 23:00:00;;;;;;;19.40;13.90;;;;;;;9.51;85.55;99482.53;134172;1304;22258;-72
2023/05/15 23:03:33;;;;;;;19.10;13.80;;;;;;;9.47;85.64;99483.59;134219;1298;22246;-72
2023/05/15 23:06:42;;;;;;;19.30;13.80;;;;;;;9.46;85.84;99477.77;134247;1298;22511;-72
2023/05/15 23:13:36;;;;;;;23.10;14.00;;;;;;;9.42;85.95;99487.33;134244;1298;22999;-72
2023/05/15 23:16:37;;;;;;;24.20;17.20;;;;;;;9.36;86.20;99488.05;134237;1298;22368;-72
2023/05/15 23:19:46;;;;;;;23.10;17.30;;;;;;;9.33;86.49;99489.33;134141;1298;23147;-72
2023/05/15 23:22:50;;;;;;;19.20;14.90;;;;;;;9.31;86.41;99495.77;134272;1298;22363;-72
2023/05/15 23:26:21;;;;;;;;;;;;;;;;;;;;;
2023/05/15 23:29:35;;;;;;;;;;;;;;;9.30;86.48;99498.81;134213;1298;22777;-72
2023/05/15 23:32:36;;;;;;;20.70;13.10;;;;;;;9.27;86.43;99495.01;134320;1297;22551;-72
2023/05/15 23:35:50;;;;;;;15.10;13.40;;;;;;;9.26;86.18;99494.30;134283;1298;22441;-72
2023/05/15 23:38:58;;;;;;;16.70;13.00;;;;;;;9.22;86.00;99492.00;134241;1297;22360;-72
2023/05/15 23:42:35;;;;;;;18.10;14.20;;;;;;;9.18;85.88;99490.99;134073;1302;22429;-72
2023/05/15 23:46:07;;;;;;;16.30;13.30;;;;;;;9.14;85.89;99484.85;134211;1298;22418;-72
2023/05/15 23:49:37;;;;;;;;;;;;;;;;;;;;;
2023/05/15 23:52:54;;;;;;;15.40;13.70;;;;;;;9.09;86.11;99489.35;134227;1298;22371;-72
2023/05/15 23:56:34;;;;;;;22.10;14.00;;;;;;;9.04;85.96;99493.26;134122;1298;22193;-72
2023/05/15 23:59:41;;;;;;;15.80;12.60;;;;;;;8.92;85.72;99494.50;134206;1304;22169;-72
